Time;durP1;ratioP1;P1;durP2;ratioP2;P2;SDS_P1;SDS_P2;PMS_P1;PMS_P2;Temp;Humidity;BMP_temperature;BMP_pressure;BME280_temperature;BME280_humidity;BME280_pressure;Samples;Min_cycle;Max_cycle;Signal;HPM_P1;HPM_P2
2023/01/28 00:01:50;;;;;;;3.97;2.10;;;2.80;99.90;;;;;;5007174;28;20024;-77
2023/01/28 00:04:17;;;;;;;3.90;2.10;;;2.80;99.90;;;;;;5005302;28;20034;-77
2023/01/28 00:06:43;;;;;;;5.07;2.97;;;2.80;99.90;;;;;;5006748;28;20037;-77
2023/01/28 00:09:09;;;;;;;4.70;2.42;;;2.80;99.90;;;;;;4990018;28;20038;-78
2023/01/28 00:11:35;;;;;;;4.70;3.00;;;2.80;99.90;;;;;;4992946;28;20045;-78
2023/01/28 00:14:00;;;;;;;9.13;6.03;;;2.80;99.90;;;;;;5006076;28;20478;-77
2023/01/28 00:16:26;;;;;;;8.68;5.47;;;2.70;99.90;;;;;;4983938;28;20490;-77
2023/01/28 00:18:53;;;;;;;6.47;4.47;;;2.70;99.90;;;;;;5008014;28;20022;-78
2023/01/28 00:21:18;;;;;;;7.00;5.03;;;2.70;99.90;;;;;;4990960;28;20030;-78
2023/01/28 00:23:51;;;;;;;6.75;4.47;;;2.80;99.90;;;;;;5007572;28;20018;-78
2023/01/28 00:26:17;;;;;;;5.07;3.55;;;2.70;99.90;;;;;;5005940;28;20041;-77
2023/01/28 00:28:44;;;;;;;5.55;3.67;;;2.70;99.90;;;;;;4987695;28;20026;-78
2023/01/28 00:31:15;;;;;;;5.13;3.00;;;2.70;99.90;;;;;;5001469;28;20092;-78
2023/01/28 00:33:42;;;;;;;4.85;2.97;;;2.70;99.90;;;;;;4971671;28;20438;-78
2023/01/28 00:36:10;;;;;;;3.85;2.33;;;2.70;99.90;;;;;;5004802;28;20022;-78
2023/01/28 00:38:36;;;;;;;3.35;2.13;;;2.70;99.90;;;;;;4983867;28;20030;-78
2023/01/28 00:41:14;;;;;;;4.15;2.67;;;2.70;99.90;;;;;;5019097;28;20025;-78
2023/01/28 00:43:40;;;;;;;4.50;2.78;;;2.70;99.90;;;;;;5019956;28;20026;-78
2023/01/28 00:46:09;;;;;;;4.25;2.20;;;2.70;99.90;;;;;;5020375;28;20034;-78
2023/01/28 00:48:36;;;;;;;4.25;2.20;;;2.70;99.90;;;;;;5006780;28;20053;-78
2023/01/28 00:51:03;;;;;;;3.70;2.30;;;2.70;99.90;;;;;;4973934;28;20558;-78
2023/01/28 00:53:29;;;;;;;3.92;1.98;;;2.60;99.90;;;;;;5006595;28;20026;-78
2023/01/28 00:55:55;;;;;;;5.40;2.70;;;2.60;99.90;;;;;;5006052;28;20018;-78
2023/01/28 00:58:23;;;;;;;4.32;2.28;;;2.60;99.90;;;;;;5008311;28;20037;-77
2023/01/28 01:00:49;;;;;;;4.68;2.78;;;2.60;99.90;;;;;;5005013;28;20162;-77
2023/01/28 01:03:16;;;;;;;3.22;1.92;;;2.70;99.90;;;;;;5022123;28;20038;-77
2023/01/28 01:05:42;;;;;;;4.07;2.13;;;2.70;99.90;;;;;;5019408;28;20037;-77
2023/01/28 01:08:08;;;;;;;3.38;1.60;;;2.70;99.90;;;;;;5008276;28;20038;-78
2023/01/28 01:10:37;;;;;;;2.97;1.52;;;2.60;99.90;;;;;;4999392;28;20026;-77
2023/01/28 01:13:04;;;;;;;3.10;1.60;;;2.60;99.90;;;;;;5004022;28;20145;-77
2023/01/28 01:15:30;;;;;;;3.30;1.58;;;2.70;99.90;;;;;;5001681;28;20037;-77
2023/01/28 01:17:56;;;;;;;3.75;1.83;;;2.60;99.90;;;;;;5005650;28;20030;-78
2023/01/28 01:20:24;;;;;;;3.55;1.88;;;2.60;99.90;;;;;;4999601;28;20026;-78
2023/01/28 01:22:51;;;;;;;4.32;2.42;;;2.60;99.90;;;;;;5006105;28;20025;-77
2023/01/28 01:25:25;;;;;;;2.83;1.45;;;2.60;99.90;;;;;;4991341;28;20022;-77
2023/01/28 01:27:51;;;;;;;4.05;2.17;;;2.60;99.90;;;;;;5003856;28;20026;-77
2023/01/28 01:30:17;;;;;;;3.75;1.73;;;2.60;99.90;;;;;;5006802;28;20018;-77
2023/01/28 01:32:43;;;;;;;3.85;2.28;;;2.50;99.90;;;;;;5004889;28;20137;-78
2023/01/28 01:35:09;;;;;;;4.05;2.25;;;2.60;99.90;;;;;;4990901;28;20026;-77
2023/01/28 01:37:36;;;;;;;3.17;1.40;;;2.60;99.90;;;;;;5004937;28;20026;-78
2023/01/28 01:40:04;;;;;;;3.25;1.67;;;2.50;99.90;;;;;;5019730;28;20043;-77
2023/01/28 01:42:31;;;;;;;3.92;2.25;;;2.50;99.90;;;;;;4988433;28;20072;-77
2023/01/28 01:45:03;;;;;;;2.75;1.40;;;2.50;99.90;;;;;;5018870;28;20032;-78
2023/01/28 01:47:34;;;;;;;3.28;1.52;;;2.50;99.90;;;;;;5007057;28;20042;-78
2023/01/28 01:50:08;;;;;;;2.75;1.38;;;2.50;99.90;;;;;;5018373;28;20052;-78
2023/01/28 01:52:35;;;;;;;3.00;1.25;;;2.50;99.90;;;;;;4988877;28;20045;-78
2023/01/28 01:55:06;;;;;;;3.17;1.55;;;2.40;99.90;;;;;;4984716;28;20026;-78
2023/01/28 01:57:34;;;;;;;3.35;1.73;;;2.50;99.90;;;;;;5006001;28;20037;-77
2023/01/28 02:00:05;;;;;;;3.13;1.48;;;2.40;99.90;;;;;;5019366;28;20022;-78
2023/01/28 02:02:42;;;;;;;3.15;1.52;;;2.40;99.90;;;;;;5004881;28;20030;-78
2023/01/28 02:05:11;;;;;;;2.97;1.48;;;2.40;99.90;;;;;;5019669;28;20054;-78
2023/01/28 02:07:38;;;;;;;2.65;1.38;;;2.40;99.90;;;;;;5003998;28;20046;-77
2023/01/28 02:10:05;;;;;;;2.55;1.30;;;2.40;99.90;;;;;;5002889;28;20068;-77
2023/01/28 02:12:35;;;;;;;3.30;1.50;;;2.40;99.90;;;;;;5019422;28;20035;-77
2023/01/28 02:15:05;;;;;;;2.53;1.15;;;2.40;99.90;;;;;;5019289;28;20025;-78
2023/01/28 02:17:31;;;;;;;2.20;0.90;;;2.30;99.90;;;;;;5002773;28;20422;-78
2023/01/28 02:20:00;;;;;;;2.80;1.45;;;2.30;99.90;;;;;;5004346;28;20058;-77
2023/01/28 02:23:05;;;;;;;2.60;1.17;;;2.30;99.90;;;;;;4964639;28;20030;-77
2023/01/28 02:25:43;;;;;;;3.00;1.33;;;2.30;99.90;;;;;;4986466;28;20034;-77
2023/01/28 02:28:26;;;;;;;3.03;1.33;;;2.30;99.90;;;;;;5003278;28;20045;-77
2023/01/28 02:31:10;;;;;;;2.72;1.30;;;2.30;99.90;;;;;;5003858;28;20030;-78
2023/01/28 02:33:51;;;;;;;2.55;1.15;;;2.30;99.90;;;;;;4984623;28;20038;-78
2023/01/28 02:36:17;;;;;;;2.47;0.98;;;2.30;99.90;;;;;;5019381;28;20025;-78
2023/01/28 02:38:51;;;;;;;2.78;1.38;;;2.30;99.90;;;;;;5002449;28;20391;-78
2023/01/28 02:41:27;;;;;;;2.25;1.20;;;2.20;99.90;;;;;;4989456;28;20038;-77
2023/01/28 02:43:53;;;;;;;2.60;1.15;;;2.20;99.90;;;;;;5000768;28;20029;-78
2023/01/28 02:49:29;;;;;;;4.18;2.10;;;2.30;99.90;;;;;;4981285;28;20054;-78
2023/01/28 02:55:30;;;;;;;3.38;1.70;;;2.30;99.90;;;;;;4981085;28;20121;-77
2023/01/28 02:58:21;;;;;;;3.10;1.60;;;2.20;99.90;;;;;;4962436;28;20038;-77
2023/01/28 03:01:01;;;;;;;4.00;2.38;;;2.20;99.90;;;;;;4983755;28;20046;-76
2023/01/28 03:03:43;;;;;;;3.07;1.67;;;2.20;99.90;;;;;;4968915;28;20022;-78
2023/01/28 03:06:14;;;;;;;3.08;1.50;;;2.20;99.90;;;;;;4962235;28;20585;-77
2023/01/28 03:36:49;;;;;;;2.33;1.27;;;2.10;99.90;;;;;;4986018;28;20357;-78
2023/01/28 03:39:33;;;;;;;2.97;1.40;;;2.10;99.90;;;;;;4988268;28;20046;-78
2023/01/28 03:42:11;;;;;;;2.80;1.50;;;2.00;99.90;;;;;;4980527;28;20033;-77
2023/01/28 03:44:52;;;;;;;3.00;1.58;;;2.00;99.90;;;;;;4995650;28;20492;-77
2023/01/28 03:47:24;;;;;;;3.33;1.55;;;1.90;99.90;;;;;;4989737;28;20073;-77
2023/01/28 03:49:51;;;;;;;3.10;2.05;;;1.90;99.90;;;;;;5002577;28;20053;-77
2023/01/28 03:52:24;;;;;;;;;;;1.90;99.90;;;;;;4990290;28;20037;-78
2023/01/28 03:54:51;;;;;;;3.40;1.98;;;1.90;99.90;;;;;;5005974;28;19957;-77
2023/01/28 03:57:20;;;;;;;2.60;1.20;;;1.90;99.90;;;;;;5019087;28;20548;-77
2023/01/28 03:59:48;;;;;;;2.33;1.00;;;1.90;99.90;;;;;;5023277;28;20026;-78
2023/01/28 04:02:15;;;;;;;2.15;1.15;;;1.90;99.90;;;;;;4972233;28;20502;-78
2023/01/28 04:04:42;;;;;;;1.95;0.85;;;1.90;99.90;;;;;;4989128;28;20022;-78
2023/01/28 04:07:14;;;;;;;2.22;1.05;;;1.90;99.90;;;;;;4976738;28;20116;-78
2023/01/28 04:10:09;;;;;;;2.17;1.00;;;1.80;99.90;;;;;;4992375;28;20095;-77
2023/01/28 04:12:42;;;;;;;2.10;0.70;;;1.80;99.90;;;;;;4987575;28;20052;-78
2023/01/28 04:15:14;;;;;;;1.85;0.70;;;1.80;99.90;;;;;;4992940;28;20041;-77
2023/01/28 04:17:45;;;;;;;1.98;0.95;;;1.80;99.90;;;;;;4973907;28;20026;-78
2023/01/28 04:20:14;;;;;;;2.50;1.17;;;1.80;99.90;;;;;;4988107;28;20121;-77
2023/01/28 04:22:40;;;;;;;2.42;1.13;;;1.70;99.90;;;;;;5020394;28;20426;-78
2023/01/28 04:25:09;;;;;;;2.60;1.00;;;1.70;99.90;;;;;;5004277;28;20038;-78
2023/01/28 04:27:34;;;;;;;2.60;1.05;;;1.70;99.90;;;;;;5020297;28;20025;-78
2023/01/28 04:30:10;;;;;;;1.73;0.60;;;1.70;99.90;;;;;;5019259;28;20073;-78
2023/01/28 04:32:39;;;;;;;2.20;0.98;;;1.60;99.90;;;;;;4989717;28;20096;-78
2023/01/28 04:35:28;;;;;;;2.70;1.10;;;1.60;99.90;;;;;;4964866;28;20160;-78
2023/01/28 04:37:59;;;;;;;2.47;1.00;;;1.60;99.90;;;;;;4965169;28;20170;-78
2023/01/28 04:40:33;;;;;;;2.30;1.00;;;1.60;99.90;;;;;;4958619;28;20772;-78
2023/01/28 04:43:11;;;;;;;3.17;1.13;;;1.70;99.90;;;;;;4950708;28;20026;-78
2023/01/28 04:45:48;;;;;;;2.92;1.38;;;1.60;99.90;;;;;;4965456;28;20065;-78
2023/01/28 04:48:31;;;;;;;2.45;1.35;;;1.70;99.90;;;;;;4934396;28;20039;-78
2023/01/28 04:51:17;;;;;;;2.38;1.05;;;1.60;99.90;;;;;;4946385;28;20451;-78
2023/01/28 04:54:05;;;;;;;2.47;1.13;;;1.60;99.90;;;;;;4956626;28;20488;-78
2023/01/28 04:56:34;;;;;;;2.72;1.27;;;1.60;99.90;;;;;;4965659;28;20061;-78
2023/01/28 04:59:01;;;;;;;2.50;1.00;;;1.60;99.90;;;;;;4946279;28;20378;-77
2023/01/28 05:01:27;;;;;;;3.53;1.70;;;1.60;99.90;;;;;;4936954;28;20019;-77
2023/01/28 05:03:54;;;;;;;3.67;2.10;;;1.60;99.90;;;;;;4949116;28;20570;-77
2023/01/28 05:06:24;;;;;;;6.88;4.60;;;1.60;99.90;;;;;;4964286;28;20303;-78
2023/01/28 05:08:53;;;;;;;5.75;3.53;;;1.60;99.90;;;;;;4963550;28;20031;-78
2023/01/28 05:11:18;;;;;;;5.40;4.07;;;1.60;99.90;;;;;;4932881;28;20023;-78
2023/01/28 05:13:48;;;;;;;9.90;6.43;;;1.60;99.90;;;;;;4984848;28;20032;-78
2023/01/28 05:16:13;;;;;;;8.95;5.70;;;1.60;99.90;;;;;;4991454;28;20030;-78
2023/01/28 05:18:39;;;;;;;7.00;4.38;;;1.60;99.90;;;;;;5020896;28;20026;-78
2023/01/28 05:21:08;;;;;;;5.57;3.28;;;1.60;99.90;;;;;;4988550;28;20071;-78
2023/01/28 05:23:36;;;;;;;5.68;2.83;;;1.60;99.90;;;;;;4986730;28;20528;-78
2023/01/28 05:26:02;;;;;;;5.07;2.85;;;1.60;99.90;;;;;;5001366;28;20026;-77
2023/01/28 05:28:28;;;;;;;8.68;5.60;;;1.60;99.90;;;;;;5023309;28;20463;-78
2023/01/28 05:30:56;;;;;;;7.55;4.60;;;1.60;99.90;;;;;;4974766;28;20029;-78
2023/01/28 05:33:21;;;;;;;5.28;3.45;;;1.60;99.90;;;;;;5006811;28;20030;-78
2023/01/28 05:35:48;;;;;;;6.85;3.95;;;1.50;99.90;;;;;;4986928;28;20025;-77
2023/01/28 05:38:16;;;;;;;7.68;3.80;;;1.50;99.90;;;;;;5020143;28;20022;-78
2023/01/28 05:40:41;;;;;;;7.68;4.85;;;1.50;99.90;;;;;;5004280;28;20026;-78
2023/01/28 05:43:07;;;;;;;6.32;4.05;;;1.50;99.90;;;;;;4986502;28;20034;-78
2023/01/28 05:45:37;;;;;;;5.20;3.10;;;1.50;99.90;;;;;;4987684;28;20033;-78
2023/01/28 05:48:32;;;;;;;7.82;3.85;;;1.50;99.90;;;;;;4937393;28;20076;-76
2023/01/28 05:51:25;;;;;;;8.35;5.03;;;1.50;99.90;;;;;;4921222;29;20130;-77
2023/01/28 05:53:55;;;;;;;9.95;6.35;;;1.50;99.90;;;;;;4923310;29;20036;-77
2023/01/28 05:56:21;;;;;;;7.88;4.93;;;1.40;99.90;;;;;;4924655;29;20039;-77
2023/01/28 05:58:47;;;;;;;8.75;5.25;;;1.50;99.90;;;;;;4907730;29;20035;-77
2023/01/28 06:01:13;;;;;;;7.65;4.60;;;1.40;99.90;;;;;;4891884;29;20405;-78
2023/01/28 06:03:46;;;;;;;7.93;4.70;;;1.40;99.90;;;;;;4943788;29;20028;-77
2023/01/28 06:06:12;;;;;;;9.25;6.05;;;1.40;99.90;;;;;;4925202;29;20042;-77
2023/01/28 06:08:37;;;;;;;8.15;4.88;;;1.40;99.90;;;;;;4940833;28;20036;-77
2023/01/28 06:11:03;;;;;;;8.68;5.13;;;1.40;99.90;;;;;;4906843;29;20031;-77
2023/01/28 06:13:32;;;;;;;8.38;5.40;;;1.40;99.90;;;;;;4906745;29;20087;-77
2023/01/28 06:16:16;;;;;;;6.53;4.00;;;1.30;99.90;;;;;;4922171;29;20070;-77
2023/01/28 06:18:52;;;;;;;6.95;4.50;;;1.40;99.90;;;;;;4923828;29;20422;-77
2023/01/28 06:21:18;;;;;;;6.32;3.40;;;1.30;99.90;;;;;;4925338;29;20028;-78
2023/01/28 06:23:43;;;;;;;6.60;3.85;;;1.30;99.90;;;;;;4941402;28;20481;-77
2023/01/28 06:26:09;;;;;;;9.43;5.95;;;1.30;99.90;;;;;;5002101;28;20132;-77
2023/01/28 06:28:37;;;;;;;10.20;6.28;;;1.20;99.90;;;;;;4990728;28;20060;-78
2023/01/28 06:31:03;;;;;;;7.65;5.07;;;1.20;99.90;;;;;;5005058;28;20033;-78
2023/01/28 06:33:29;;;;;;;6.38;3.60;;;1.20;99.90;;;;;;4989867;28;20398;-78
2023/01/28 06:35:54;;;;;;;6.00;3.33;;;1.30;99.90;;;;;;4985825;28;20084;-77
2023/01/28 06:38:20;;;;;;;6.85;3.42;;;1.20;99.90;;;;;;5018774;28;20091;-77
2023/01/28 06:40:54;;;;;;;5.40;3.30;;;1.20;99.90;;;;;;5017414;28;20081;-77
2023/01/28 06:43:26;;;;;;;5.57;3.15;;;1.20;99.90;;;;;;5021706;28;20399;-76
2023/01/28 06:45:53;;;;;;;6.80;3.90;;;1.10;99.90;;;;;;4983677;28;20424;-77
2023/01/28 06:48:19;;;;;;;5.25;2.78;;;1.20;99.90;;;;;;5002603;28;20075;-77
2023/01/28 06:50:48;;;;;;;5.10;2.95;;;1.20;99.90;;;;;;5002663;28;20164;-77
2023/01/28 06:53:14;;;;;;;4.28;2.17;;;1.20;99.90;;;;;;5004449;28;20050;-77
2023/01/28 06:55:40;;;;;;;4.75;2.67;;;1.20;99.90;;;;;;5002013;28;20026;-77
2023/01/28 06:58:05;;;;;;;4.32;2.35;;;1.10;99.90;;;;;;5000974;28;20049;-77
2023/01/28 07:00:31;;;;;;;4.80;2.83;;;1.20;99.90;;;;;;4995957;28;20111;-76
2023/01/28 07:02:57;;;;;;;4.20;2.42;;;1.20;99.90;;;;;;5002609;28;20529;-78
2023/01/28 07:05:23;;;;;;;9.30;5.55;;;1.10;99.90;;;;;;4987546;28;20161;-78
2023/01/28 07:07:49;;;;;;;8.75;5.15;;;1.10;99.90;;;;;;4987205;28;20026;-77
2023/01/28 07:10:15;;;;;;;8.88;4.93;;;1.10;99.90;;;;;;5002435;28;20040;-78
2023/01/28 07:12:40;;;;;;;11.95;6.80;;;1.10;99.90;;;;;;4968382;28;20049;-77
2023/01/28 07:15:07;;;;;;;12.63;8.30;;;1.00;99.90;;;;;;5017779;28;20034;-77
2023/01/28 07:17:33;;;;;;;10.95;7.20;;;1.00;99.90;;;;;;5004535;28;20034;-78
2023/01/28 07:19:58;;;;;;;9.32;5.70;;;1.00;99.90;;;;;;5002057;28;20025;-77
2023/01/28 07:22:24;;;;;;;9.30;6.05;;;1.00;99.90;;;;;;4984565;28;20034;-77
2023/01/28 07:24:50;;;;;;;10.70;6.60;;;0.90;99.90;;;;;;4986329;28;20495;-78
2023/01/28 07:27:15;;;;;;;14.00;8.93;;;0.90;99.90;;;;;;5004373;28;20034;-77
2023/01/28 07:29:41;;;;;;;13.45;8.90;;;0.90;99.90;;;;;;5004201;28;20494;-77
2023/01/28 07:32:07;;;;;;;15.38;9.30;;;0.90;99.90;;;;;;4997288;28;20046;-77
2023/01/28 07:34:33;;;;;;;13.20;8.73;;;0.80;99.90;;;;;;4988880;28;20545;-77
2023/01/28 07:36:58;;;;;;;11.73;7.68;;;0.90;99.90;;;;;;5017850;28;20030;-77
2023/01/28 07:39:24;;;;;;;12.88;7.68;;;0.90;99.90;;;;;;5003033;28;20026;-78
2023/01/28 07:41:50;;;;;;;11.73;7.88;;;0.90;99.90;;;;;;5002882;28;20057;-77
2023/01/28 07:44:31;;;;;;;7.97;5.07;;;0.80;99.90;;;;;;4985982;28;20022;-78
2023/01/28 07:46:56;;;;;;;13.27;7.05;;;0.90;99.90;;;;;;5003884;28;20381;-78
2023/01/28 07:49:22;;;;;;;17.17;10.57;;;0.90;99.90;;;;;;5003484;28;20038;-77
2023/01/28 07:51:49;;;;;;;15.15;9.43;;;0.90;99.90;;;;;;5003595;28;20033;-77
2023/01/28 07:54:16;;;;;;;12.38;7.78;;;0.80;99.90;;;;;;5004537;28;20034;-78
2023/01/28 07:56:41;;;;;;;9.77;6.10;;;0.90;99.90;;;;;;5017464;28;20038;-78
2023/01/28 07:59:07;;;;;;;9.05;5.57;;;1.00;99.90;;;;;;5006148;28;20030;-77
2023/01/28 08:01:33;;;;;;;9.85;5.53;;;1.00;99.90;;;;;;4992041;28;20371;-78
2023/01/28 08:03:58;;;;;;;11.45;6.53;;;1.00;99.90;;;;;;4967902;28;20105;-77
2023/01/28 08:06:24;;;;;;;10.88;6.10;;;1.00;99.90;;;;;;5007208;28;20080;-78
2023/01/28 08:08:50;;;;;;;11.63;7.28;;;1.00;99.90;;;;;;5005001;28;20033;-78
2023/01/28 08:11:15;;;;;;;12.68;7.90;;;1.00;99.90;;;;;;5019583;28;20084;-78
2023/01/28 08:13:41;;;;;;;10.48;7.07;;;1.00;99.90;;;;;;5007393;28;20030;-77
2023/01/28 08:16:07;;;;;;;11.27;6.90;;;1.00;99.90;;;;;;4988756;28;20615;-77
2023/01/28 08:18:32;;;;;;;9.80;6.30;;;1.00;99.90;;;;;;5008818;28;20124;-77
2023/01/28 08:20:58;;;;;;;10.95;6.45;;;1.10;99.90;;;;;;5023260;28;20030;-78
2023/01/28 08:23:25;;;;;;;14.07;5.78;;;1.10;99.90;;;;;;4988588;28;20030;-78
2023/01/28 08:25:52;;;;;;;6.90;4.20;;;1.10;99.90;;;;;;4990922;28;20045;-78
2023/01/28 08:28:19;;;;;;;7.32;4.15;;;1.20;99.90;;;;;;5020590;28;20038;-78
2023/01/28 08:30:45;;;;;;;6.70;4.05;;;1.20;99.90;;;;;;5003455;28;20040;-77
2023/01/28 08:33:13;;;;;;;6.80;3.70;;;1.20;99.90;;;;;;5005503;28;20133;-78
2023/01/28 08:35:39;;;;;;;5.28;2.78;;;1.30;99.90;;;;;;4975293;28;20463;-78
2023/01/28 08:38:06;;;;;;;5.35;3.53;;;1.30;99.90;;;;;;5004577;28;20033;-78
2023/01/28 08:40:32;;;;;;;6.70;4.15;;;1.30;99.90;;;;;;5006389;28;20193;-77
2023/01/28 08:42:58;;;;;;;6.22;3.67;;;1.30;99.90;;;;;;5006371;28;20048;-77
2023/01/28 08:45:26;;;;;;;5.05;2.78;;;1.30;99.90;;;;;;4987261;28;20105;-78
2023/01/28 08:47:54;;;;;;;5.25;3.13;;;1.30;99.90;;;;;;4975202;28;20034;-77
2023/01/28 08:50:22;;;;;;;5.05;3.10;;;1.40;99.90;;;;;;5003068;28;20031;-78
2023/01/28 08:53:14;;;;;;;5.35;3.45;;;1.40;99.90;;;;;;5020597;28;20601;-77
2023/01/28 08:55:40;;;;;;;5.80;3.53;;;1.40;99.90;;;;;;5004495;28;20266;-78
2023/01/28 08:58:09;;;;;;;6.28;3.45;;;1.50;99.90;;;;;;5004454;28;20182;-77
2023/01/28 09:00:35;;;;;;;5.18;3.05;;;1.50;99.90;;;;;;5018046;28;20029;-78
2023/01/28 09:03:01;;;;;;;4.47;2.72;;;1.50;99.90;;;;;;5018333;28;20042;-77
2023/01/28 09:05:28;;;;;;;4.72;2.80;;;1.50;99.90;;;;;;4987886;28;20087;-77
2023/01/28 09:07:54;;;;;;;5.80;3.58;;;1.50;99.90;;;;;;5002432;28;20490;-77
2023/01/28 09:10:20;;;;;;;4.53;2.80;;;1.50;99.90;;;;;;5002943;28;20023;-77
2023/01/28 09:12:46;;;;;;;5.20;3.10;;;1.40;99.90;;;;;;5004650;28;20042;-78
2023/01/28 09:15:13;;;;;;;9.18;5.32;;;1.40;99.90;;;;;;5020669;28;20064;-77
2023/01/28 09:17:39;;;;;;;9.57;6.13;;;1.40;99.90;;;;;;4989769;28;20339;-78
2023/01/28 09:20:06;;;;;;;7.40;5.07;;;1.30;99.90;;;;;;5005918;28;20041;-77
2023/01/28 09:22:32;;;;;;;7.35;4.93;;;1.40;99.90;;;;;;5007202;28;20142;-78
2023/01/28 09:24:58;;;;;;;5.72;3.63;;;1.50;99.90;;;;;;4987060;28;20026;-77
2023/01/28 09:27:24;;;;;;;4.57;2.78;;;1.60;99.90;;;;;;4985599;28;20034;-77
2023/01/28 09:29:49;;;;;;;5.72;3.30;;;1.60;99.90;;;;;;5019365;28;20034;-77
2023/01/28 09:32:15;;;;;;;6.68;4.40;;;1.60;99.90;;;;;;5018793;28;20091;-77
2023/01/28 09:34:43;;;;;;;6.10;3.88;;;1.60;99.90;;;;;;5020582;28;20475;-77
2023/01/28 09:37:10;;;;;;;7.68;5.43;;;1.60;99.90;;;;;;5004310;28;20036;-77
2023/01/28 09:39:36;;;;;;;9.30;6.70;;;1.60;99.90;;;;;;5005230;28;20205;-77
2023/01/28 09:42:17;;;;;;;8.63;6.10;;;1.60;99.90;;;;;;5020311;28;20116;-77
2023/01/28 09:44:50;;;;;;;12.55;9.30;;;1.60;99.90;;;;;;4986129;28;20030;-77
2023/01/28 09:47:40;;;;;;;11.70;8.05;;;1.50;99.90;;;;;;5016420;28;20022;-77
2023/01/28 09:50:19;;;;;;;10.60;7.93;;;1.60;99.90;;;;;;5001087;28;20042;-77
2023/01/28 09:52:45;;;;;;;8.57;6.45;;;1.60;99.90;;;;;;5017901;28;20378;-77
2023/01/28 09:55:43;;;;;;;8.38;5.93;;;1.60;99.90;;;;;;4984281;28;20476;-77
2023/01/28 09:58:14;;;;;;;15.23;10.13;;;1.70;99.90;;;;;;4984236;28;20048;-77
2023/01/28 10:01:10;;;;;;;14.57;9.02;;;1.60;99.90;;;;;;4987126;28;20426;-78
2023/01/28 10:03:44;;;;;;;10.45;7.78;;;1.60;99.90;;;;;;5001546;28;20499;-78
2023/01/28 10:06:19;;;;;;;8.85;6.13;;;1.60;99.90;;;;;;4970383;28;20042;-77
2023/01/28 10:09:08;;;;;;;8.57;6.43;;;1.60;99.90;;;;;;5003955;28;20112;-78
2023/01/28 10:11:50;;;;;;;6.70;4.53;;;1.70;99.90;;;;;;5005130;28;20411;-77
2023/01/28 10:14:35;;;;;;;6.38;4.75;;;1.70;99.90;;;;;;5018570;28;20038;-77
2023/01/28 10:17:27;;;;;;;8.30;6.13;;;1.70;99.90;;;;;;5001769;28;20485;-76
2023/01/28 10:19:58;;;;;;;11.82;8.18;;;1.70;99.90;;;;;;4969609;28;20033;-77
2023/01/28 10:22:33;;;;;;;;;;;1.70;99.90;;;;;;5002754;28;20497;-78
2023/01/28 10:25:05;;;;;;;8.15;5.20;;;1.80;99.90;;;;;;4986193;28;19916;-78
2023/01/28 10:27:32;;;;;;;6.63;4.45;;;1.80;99.90;;;;;;4981413;28;20479;-77
2023/01/28 10:30:07;;;;;;;7.85;5.55;;;1.90;99.90;;;;;;4988106;28;20120;-80
2023/01/28 10:32:37;;;;;;;11.10;7.47;;;1.90;99.90;;;;;;4970089;28;20046;-78
2023/01/28 10:35:03;;;;;;;8.52;5.68;;;1.90;99.90;;;;;;5019497;28;20026;-78
2023/01/28 10:37:38;;;;;;;7.60;5.70;;;2.10;99.90;;;;;;4989417;28;20034;-78
2023/01/28 10:40:04;;;;;;;6.32;4.28;;;2.10;99.90;;;;;;5001754;28;20045;-78
2023/01/28 10:42:36;;;;;;;5.30;3.92;;;2.20;99.90;;;;;;4989696;28;20029;-78
2023/01/28 10:45:17;;;;;;;4.72;3.30;;;2.30;99.90;;;;;;5003395;28;20018;-78
2023/01/28 10:48:04;;;;;;;4.20;3.25;;;2.40;99.90;;;;;;4985915;28;20097;-78
2023/01/28 10:50:30;;;;;;;4.03;2.72;;;2.40;99.90;;;;;;5004968;28;20129;-77
2023/01/28 10:53:00;;;;;;;4.10;2.65;;;2.40;99.90;;;;;;5000770;28;20042;-77
2023/01/28 10:55:33;;;;;;;;;;;2.40;99.90;;;;;;5017509;28;20356;-78
2023/01/28 10:57:58;;;;;;;5.70;3.75;;;2.50;99.90;;;;;;4987994;28;19917;-78
2023/01/28 11:00:34;;;;;;;9.85;5.65;;;2.40;99.90;;;;;;5003400;28;20031;-78
2023/01/28 11:03:00;;;;;;;5.80;4.15;;;2.40;99.90;;;;;;4980854;28;20681;-78
2023/01/28 11:05:29;;;;;;;6.25;4.10;;;2.60;99.90;;;;;;5002199;28;20038;-77
2023/01/28 11:08:12;;;;;;;7.20;5.22;;;2.60;99.90;;;;;;4988576;28;20049;-78
2023/01/28 11:10:39;;;;;;;6.47;4.50;;;2.50;99.90;;;;;;5001748;28;20022;-77
2023/01/28 11:13:14;;;;;;;6.45;4.00;;;2.70;99.90;;;;;;4987340;28;20052;-77
2023/01/28 11:15:50;;;;;;;5.75;4.07;;;2.60;99.90;;;;;;4965942;28;20482;-78
2023/01/28 11:18:25;;;;;;;5.68;3.83;;;2.80;99.90;;;;;;5001963;28;20034;-77
2023/01/28 11:20:55;;;;;;;7.22;4.95;;;2.70;99.90;;;;;;5003408;28;20022;-74
2023/01/28 11:23:25;;;;;;;6.68;5.22;;;2.70;99.90;;;;;;4984856;28;20056;-77
2023/01/28 11:26:00;;;;;;;6.65;5.03;;;2.70;99.90;;;;;;4990900;28;20048;-77
2023/01/28 11:28:26;;;;;;;6.00;4.18;;;2.80;99.90;;;;;;5000411;28;20029;-77
2023/01/28 11:30:55;;;;;;;4.47;3.15;;;3.00;99.90;;;;;;5002836;28;20044;-77
2023/01/28 11:33:36;;;;;;;4.25;2.88;;;3.00;99.90;;;;;;5002800;28;20124;-78
2023/01/28 11:36:22;;;;;;;3.20;2.17;;;3.10;99.90;;;;;;4989925;28;20854;-78
2023/01/28 11:39:01;;;;;;;3.90;2.70;;;3.10;99.90;;;;;;5003280;28;20048;-77
2023/01/28 11:41:33;;;;;;;4.18;2.85;;;3.20;99.90;;;;;;5006968;28;20094;-77
2023/01/28 11:44:15;;;;;;;3.65;2.25;;;3.40;99.90;;;;;;5006464;28;20072;-78
2023/01/28 11:46:47;;;;;;;4.03;2.65;;;3.50;99.90;;;;;;5005436;28;20029;-78
2023/01/28 11:49:46;;;;;;;4.40;3.15;;;3.50;99.90;;;;;;5004101;28;20648;-78
2023/01/28 11:52:46;;;;;;;2.90;1.40;;;3.60;99.90;;;;;;5005434;28;20167;-78
2023/01/28 11:55:30;;;;;;;3.25;2.05;;;3.40;99.90;;;;;;5004020;28;20045;-78
2023/01/28 11:58:09;;;;;;;3.10;1.92;;;3.40;99.90;;;;;;5003755;28;20037;-77
2023/01/28 12:00:53;;;;;;;2.88;2.13;;;3.50;99.90;;;;;;5005473;28;20481;-78
2023/01/28 12:03:41;;;;;;;3.20;1.77;;;3.50;99.90;;;;;;5012241;28;20048;-77
2023/01/28 12:06:21;;;;;;;3.65;2.30;;;3.40;99.90;;;;;;5003331;28;20046;-78
2023/01/28 12:08:59;;;;;;;4.07;2.22;;;3.70;99.90;;;;;;5003329;28;20952;-78
2023/01/28 12:14:51;;;;;;;3.13;1.73;;;3.50;99.90;;;;;;5004797;28;20038;-79
2023/01/28 12:17:22;;;;;;;3.42;2.05;;;3.70;99.90;;;;;;5010642;28;20390;-78
2023/01/28 12:19:48;;;;;;;3.85;2.53;;;3.50;99.90;;;;;;5004450;28;20045;-78
2023/01/28 12:22:26;;;;;;;3.75;2.30;;;3.50;99.90;;;;;;5000554;28;20475;-79
2023/01/28 12:25:15;;;;;;;4.40;2.95;;;3.80;99.90;;;;;;4997825;28;20418;-78
2023/01/28 12:28:06;;;;;;;3.83;2.60;;;3.70;99.90;;;;;;4998685;28;20106;-78
2023/01/28 12:31:13;;;;;;;3.72;2.40;;;3.60;99.90;;;;;;5000891;28;20389;-78
2023/01/28 12:33:50;;;;;;;3.40;2.10;;;3.80;99.90;;;;;;4968664;28;20047;-78
2023/01/28 12:36:26;;;;;;;4.07;2.60;;;3.70;99.90;;;;;;4967620;28;20027;-78
2023/01/28 12:39:10;;;;;;;3.50;2.50;;;3.80;99.90;;;;;;4949842;28;20043;-78
2023/01/28 12:41:45;;;;;;;3.35;1.92;;;3.70;99.90;;;;;;4983810;28;20086;-78
2023/01/28 12:44:19;;;;;;;4.00;2.47;;;3.80;99.90;;;;;;4949183;28;20057;-78
2023/01/28 12:47:14;;;;;;;4.82;2.67;;;3.90;99.90;;;;;;4951642;28;20455;-78
2023/01/28 12:49:49;;;;;;;3.90;2.55;;;3.70;99.90;;;;;;4962581;28;20162;-77
2023/01/28 12:52:27;;;;;;;3.50;2.55;;;3.60;99.90;;;;;;4966754;28;20062;-77
2023/01/28 12:54:57;;;;;;;3.65;1.98;;;3.70;99.90;;;;;;4966926;28;20077;-78
2023/01/28 12:57:29;;;;;;;3.78;2.40;;;3.70;99.90;;;;;;4949257;28;20126;-78
2023/01/28 13:00:29;;;;;;;4.63;2.53;;;3.70;99.90;;;;;;4951107;28;20079;-79
2023/01/28 13:03:35;;;;;;;3.75;2.45;;;3.80;99.90;;;;;;4953429;28;20197;-78
2023/01/28 13:06:07;;;;;;;3.67;2.47;;;3.70;99.90;;;;;;4926427;29;20066;-78
2023/01/28 13:08:33;;;;;;;5.63;4.07;;;3.80;99.90;;;;;;4928605;29;20374;-78
2023/01/28 13:11:02;;;;;;;7.68;5.07;;;3.50;99.90;;;;;;4927961;29;20066;-78
2023/01/28 13:13:35;;;;;;;6.53;4.57;;;3.60;99.90;;;;;;4928981;29;20494;-78
2023/01/28 13:16:02;;;;;;;7.60;5.60;;;3.90;99.90;;;;;;4897422;29;20039;-79
2023/01/28 13:18:42;;;;;;;5.53;4.47;;;3.80;99.90;;;;;;4897514;29;20544;-79
2023/01/28 13:21:23;;;;;;;6.70;4.03;;;3.90;99.90;;;;;;4912814;29;20078;-78
2023/01/28 13:24:13;;;;;;;7.10;4.78;;;4.00;99.90;;;;;;4891491;29;20460;-79
2023/01/28 13:26:50;;;;;;;11.60;7.82;;;3.70;99.90;;;;;;4916770;29;20035;-79
2023/01/28 13:29:21;;;;;;;8.40;6.07;;;3.70;99.90;;;;;;4929329;29;20118;-78
2023/01/28 13:31:49;;;;;;;6.68;5.32;;;4.00;99.90;;;;;;4898011;29;20652;-79
2023/01/28 13:34:42;;;;;;;5.90;4.22;;;4.00;99.90;;;;;;4910931;29;20036;-78
2023/01/28 13:37:31;;;;;;;4.85;3.35;;;4.00;99.90;;;;;;4909747;29;20039;-78
2023/01/28 13:40:20;;;;;;;4.60;3.53;;;4.00;99.90;;;;;;4951428;28;20045;-79
2023/01/28 13:42:59;;;;;;;4.82;3.40;;;4.00;99.90;;;;;;4987513;28;20161;-78
2023/01/28 13:45:25;;;;;;;3.83;2.25;;;3.90;99.90;;;;;;4998617;28;20478;-79
2023/01/28 13:48:17;;;;;;;4.97;2.55;;;4.00;99.90;;;;;;4980368;28;20030;-79
2023/01/28 13:50:43;;;;;;;4.05;2.75;;;3.90;99.90;;;;;;4997249;28;20173;-78
2023/01/28 13:53:22;;;;;;;5.03;2.88;;;4.00;99.90;;;;;;5005510;28;20054;-79
2023/01/28 13:55:51;;;;;;;5.57;3.72;;;4.00;99.90;;;;;;4999680;28;20371;-78
2023/01/28 13:58:54;;;;;;;4.30;2.80;;;4.00;99.90;;;;;;4999897;28;20029;-78
2023/01/28 14:01:44;;;;;;;3.72;2.38;;;3.90;99.90;;;;;;4996343;28;20034;-78